Time;durP1;ratioP1;P1;durP2;ratioP2;P2;SDS_P1;SDS_P2;PMS_P1;PMS_P2;Temp;Humidity;BMP_temperature;BMP_pressure;BME280_temperature;BME280_humidity;BME280_pressure;Samples;Min_cycle;Max_cycle;Signal;HPM_P1;HPM_P2
2022/04/29 00:01:19;;;;;;;11.83;7.87;;;11.70;99.90;;;;;;5011741;28;20610;-74
2022/04/29 00:03:44;;;;;;;11.30;7.13;;;11.70;99.90;;;;;;5010016;28;20538;-72
2022/04/29 00:06:10;;;;;;;15.00;7.27;;;11.60;99.90;;;;;;5011540;28;20177;-73
2022/04/29 00:08:36;;;;;;;12.80;7.50;;;11.60;99.90;;;;;;5011127;28;20196;-74
2022/04/29 00:11:02;;;;;;;15.23;8.10;;;11.60;99.90;;;;;;5011646;28;20204;-73
2022/04/29 00:13:27;;;;;;;11.57;7.03;;;11.60;99.90;;;;;;5009716;28;20217;-75
2022/04/29 00:15:53;;;;;;;12.63;7.07;;;11.60;99.90;;;;;;5011482;28;20211;-70
2022/04/29 00:18:18;;;;;;;10.83;6.97;;;11.50;99.90;;;;;;5010782;28;20205;-74
2022/04/29 00:20:44;;;;;;;15.30;7.53;;;11.50;99.90;;;;;;5011720;28;20183;-75
2022/04/29 00:23:10;;;;;;;11.43;7.00;;;11.40;99.90;;;;;;5011392;28;20216;-72
2022/04/29 00:25:36;;;;;;;10.93;7.40;;;11.40;99.90;;;;;;5011103;28;20204;-74
2022/04/29 00:28:03;;;;;;;14.13;8.40;;;11.40;99.90;;;;;;5009208;28;20213;-73
2022/04/29 00:30:29;;;;;;;12.60;7.23;;;11.30;99.90;;;;;;5011222;28;20259;-74
2022/04/29 00:32:54;;;;;;;13.17;7.10;;;11.30;99.90;;;;;;5011197;28;20569;-74
2022/04/29 00:35:20;;;;;;;10.27;7.77;;;11.30;99.90;;;;;;5011200;28;20224;-74
2022/04/29 00:37:49;;;;;;;12.73;7.93;;;11.20;99.90;;;;;;5010895;28;20212;-73
2022/04/29 00:40:16;;;;;;;8.90;7.27;;;11.20;99.90;;;;;;5010783;28;20205;-74
2022/04/29 00:42:43;;;;;;;9.53;6.77;;;11.20;99.90;;;;;;5010730;28;20205;-74
2022/04/29 00:45:09;;;;;;;10.47;6.97;;;11.20;99.90;;;;;;5011186;28;20176;-73
2022/04/29 00:47:35;;;;;;;10.73;6.90;;;11.10;99.90;;;;;;5009843;28;20188;-72
2022/04/29 00:50:00;;;;;;;13.17;7.50;;;11.10;99.90;;;;;;5008799;28;20279;-74
2022/04/29 00:52:29;;;;;;;12.00;7.70;;;11.10;99.90;;;;;;5009421;28;20216;-74
2022/04/29 00:55:04;;;;;;;10.60;7.37;;;11.00;99.90;;;;;;5010638;28;20218;-74
2022/04/29 00:57:37;;;;;;;10.73;7.33;;;11.00;99.90;;;;;;5010932;28;20266;-73
2022/04/29 01:00:08;;;;;;;10.60;7.40;;;11.00;99.90;;;;;;5010737;28;20199;-74
2022/04/29 01:02:38;;;;;;;11.77;7.57;;;11.00;99.90;;;;;;5010876;28;20275;-73
2022/04/29 01:05:06;;;;;;;12.50;7.23;;;11.00;99.90;;;;;;5010833;28;20296;-74
2022/04/29 01:07:36;;;;;;;12.27;7.80;;;11.00;99.90;;;;;;5010769;28;20204;-74
2022/04/29 01:10:03;;;;;;;11.30;7.03;;;11.00;99.90;;;;;;5010201;28;20205;-74
2022/04/29 01:12:30;;;;;;;12.87;6.93;;;11.00;99.90;;;;;;5010707;28;20304;-74
2022/04/29 01:15:00;;;;;;;12.80;7.63;;;11.00;99.90;;;;;;5011531;28;20678;-74
2022/04/29 01:17:26;;;;;;;10.13;7.20;;;11.00;99.90;;;;;;5009471;28;20686;-74
2022/04/29 01:19:51;;;;;;;9.73;6.83;;;11.00;99.90;;;;;;5009895;28;20208;-74
2022/04/29 01:22:17;;;;;;;9.37;6.63;;;11.00;99.90;;;;;;5010718;28;20204;-74
2022/04/29 01:24:42;;;;;;;13.10;7.17;;;11.00;99.90;;;;;;5010572;28;20283;-75
2022/04/29 01:27:12;;;;;;;12.33;7.37;;;11.00;99.90;;;;;;5009414;28;20177;-74
2022/04/29 01:29:40;;;;;;;10.87;7.17;;;11.00;99.90;;;;;;5010512;28;20185;-74
2022/04/29 01:32:11;;;;;;;14.87;7.57;;;11.00;99.90;;;;;;5010681;28;20241;-74
2022/04/29 01:34:37;;;;;;;12.70;7.67;;;11.00;99.90;;;;;;5008938;28;20307;-75
2022/04/29 01:37:04;;;;;;;15.67;7.20;;;11.00;99.90;;;;;;5009612;28;20205;-75
2022/04/29 01:39:29;;;;;;;11.33;7.47;;;11.00;99.90;;;;;;5009823;28;20213;-75
2022/04/29 01:41:55;;;;;;;8.60;6.60;;;11.00;99.90;;;;;;5011074;28;20666;-75
2022/04/29 01:44:21;;;;;;;11.43;6.97;;;11.10;99.90;;;;;;5009050;28;20215;-74
2022/04/29 01:46:46;;;;;;;13.13;7.70;;;11.10;99.90;;;;;;5010668;28;20197;-74
2022/04/29 01:49:12;;;;;;;14.20;7.33;;;11.10;99.90;;;;;;5008231;28;20208;-74
2022/04/29 01:51:38;;;;;;;15.70;7.03;;;11.20;99.90;;;;;;5010222;28;20296;-74
2022/04/29 01:54:09;;;;;;;11.73;7.40;;;11.10;99.90;;;;;;5009436;28;20197;-74
2022/04/29 01:56:35;;;;;;;12.30;7.03;;;11.00;99.90;;;;;;5009144;28;20219;-74
2022/04/29 01:59:01;;;;;;;12.83;8.07;;;10.90;99.90;;;;;;5009654;28;20205;-74
2022/04/29 02:01:27;;;;;;;11.00;8.00;;;10.80;99.90;;;;;;5011890;28;20205;-74
2022/04/29 02:03:54;;;;;;;12.40;7.37;;;10.70;99.90;;;;;;5013545;28;20701;-74
2022/04/29 02:06:20;;;;;;;9.87;6.93;;;10.70;99.90;;;;;;5014023;28;20184;-74
2022/04/29 02:08:46;;;;;;;11.10;7.23;;;10.70;99.90;;;;;;5012198;28;20173;-73
2022/04/29 02:11:11;;;;;;;11.13;7.03;;;10.60;99.90;;;;;;5013813;28;20725;-74
2022/04/29 02:13:38;;;;;;;13.80;7.97;;;10.50;99.90;;;;;;5014008;28;20263;-75
2022/04/29 02:16:04;;;;;;;9.97;7.13;;;10.50;99.90;;;;;;5012213;28;20201;-74
2022/04/29 02:18:30;;;;;;;10.87;8.20;;;10.50;99.90;;;;;;5011355;28;20673;-74
2022/04/29 02:20:56;;;;;;;10.60;7.07;;;10.50;99.90;;;;;;5014081;28;20239;-74
2022/04/29 02:23:21;;;;;;;10.00;7.47;;;10.50;99.90;;;;;;5012065;28;20269;-74
2022/04/29 02:25:47;;;;;;;10.30;7.10;;;10.40;99.90;;;;;;5013402;28;20208;-72
2022/04/29 02:28:12;;;;;;;12.97;7.53;;;10.40;99.90;;;;;;5012788;28;20205;-74
2022/04/29 02:30:39;;;;;;;11.57;7.17;;;10.30;99.90;;;;;;5013295;28;20728;-74
2022/04/29 02:33:04;;;;;;;13.47;7.13;;;10.40;99.90;;;;;;5013486;28;20701;-74
2022/04/29 02:35:30;;;;;;;11.67;7.57;;;10.30;99.90;;;;;;5013038;28;20215;-73
2022/04/29 02:37:55;;;;;;;13.70;7.03;;;10.30;99.90;;;;;;5012962;28;20258;-73
2022/04/29 02:40:23;;;;;;;10.43;7.43;;;10.30;99.90;;;;;;5012672;28;20630;-73
2022/04/29 02:42:48;;;;;;;12.33;7.40;;;10.20;99.90;;;;;;5013158;28;20288;-74
2022/04/29 02:45:13;;;;;;;14.67;7.43;;;10.20;99.90;;;;;;5012922;28;20209;-73
2022/04/29 02:47:39;;;;;;;13.50;7.47;;;10.30;99.90;;;;;;5013011;28;20548;-72
2022/04/29 02:50:05;;;;;;;12.83;7.57;;;10.20;99.90;;;;;;5012592;28;20201;-75
2022/04/29 02:52:31;;;;;;;11.70;7.23;;;10.20;99.90;;;;;;5005747;28;20577;-75
2022/04/29 02:54:56;;;;;;;12.60;7.37;;;10.20;99.90;;;;;;5012754;28;20213;-74
2022/04/29 02:57:22;;;;;;;13.20;6.97;;;10.20;99.90;;;;;;5012657;28;20650;-74
2022/04/29 02:59:47;;;;;;;11.97;7.90;;;10.20;99.90;;;;;;5012527;28;20169;-74
2022/04/29 03:02:13;;;;;;;14.57;8.23;;;10.20;99.90;;;;;;5012512;28;20624;-74
2022/04/29 03:04:38;;;;;;;11.33;7.70;;;10.20;99.90;;;;;;5012311;28;20693;-74
2022/04/29 03:07:04;;;;;;;11.30;7.73;;;10.20;99.90;;;;;;5011307;28;20209;-73
2022/04/29 03:09:29;;;;;;;13.67;8.60;;;10.20;99.90;;;;;;5011572;28;20219;-75
2022/04/29 03:11:55;;;;;;;12.87;7.83;;;10.10;99.90;;;;;;5012787;28;20205;-74
2022/04/29 03:14:20;;;;;;;9.53;7.60;;;10.20;99.90;;;;;;5010996;28;20204;-75
2022/04/29 03:16:46;;;;;;;13.57;7.63;;;10.20;99.90;;;;;;5004406;28;20204;-73
2022/04/29 03:19:12;;;;;;;12.97;7.60;;;10.10;99.90;;;;;;5010108;28;20685;-74
2022/04/29 03:21:38;;;;;;;14.40;8.03;;;10.10;99.90;;;;;;5012310;28;20212;-72
2022/04/29 03:24:04;;;;;;;15.03;8.97;;;10.00;99.90;;;;;;5012496;28;20180;-72
2022/04/29 03:26:30;;;;;;;12.17;7.60;;;10.00;99.90;;;;;;5012137;28;20271;-72
2022/04/29 03:28:56;;;;;;;9.90;7.17;;;10.00;99.90;;;;;;5010367;28;20252;-73
2022/04/29 03:31:21;;;;;;;16.43;8.03;;;10.00;99.90;;;;;;5012246;28;20209;-71
2022/04/29 03:33:47;;;;;;;13.50;8.13;;;10.00;99.90;;;;;;5010344;28;20227;-73
2022/04/29 03:36:14;;;;;;;10.17;7.10;;;10.00;99.90;;;;;;5011027;28;20182;-72
2022/04/29 03:38:40;;;;;;;13.13;8.03;;;10.00;99.90;;;;;;5011749;28;20177;-72
2022/04/29 03:41:07;;;;;;;11.27;7.60;;;10.00;99.90;;;;;;5011783;28;20701;-72
2022/04/29 03:43:33;;;;;;;12.80;7.37;;;10.00;99.90;;;;;;5010180;28;20806;-72
2022/04/29 03:45:59;;;;;;;13.27;8.33;;;10.00;99.90;;;;;;5011897;28;20284;-73
2022/04/29 03:48:24;;;;;;;14.43;7.83;;;10.00;99.90;;;;;;5010743;28;20187;-72
2022/04/29 03:50:50;;;;;;;14.40;7.43;;;10.10;99.90;;;;;;5010917;28;20180;-72
2022/04/29 03:53:15;;;;;;;13.80;7.43;;;10.20;99.90;;;;;;5009737;28;20213;-72
2022/04/29 03:55:41;;;;;;;11.20;8.50;;;10.20;99.90;;;;;;5011398;28;20609;-73
2022/04/29 03:58:06;;;;;;;10.60;7.17;;;10.20;99.90;;;;;;5011006;28;20205;-72
2022/04/29 04:00:33;;;;;;;9.80;7.20;;;10.30;99.90;;;;;;5011477;28;20221;-72
2022/04/29 04:02:59;;;;;;;12.47;7.83;;;10.30;99.90;;;;;;5011749;28;20500;-72
2022/04/29 04:05:25;;;;;;;11.30;7.70;;;10.40;99.90;;;;;;5010033;28;20248;-72
2022/04/29 04:07:51;;;;;;;11.23;7.90;;;10.50;99.90;;;;;;5009863;28;20601;-73
2022/04/29 04:10:17;;;;;;;9.60;7.53;;;10.60;99.90;;;;;;5011234;28;20212;-71
2022/04/29 04:12:46;;;;;;;9.40;7.57;;;10.70;99.90;;;;;;5010929;28;20212;-72
2022/04/29 04:15:13;;;;;;;11.67;6.80;;;10.90;99.90;;;;;;5011423;28;20275;-72
2022/04/29 04:17:39;;;;;;;11.53;7.87;;;11.10;99.90;;;;;;5009800;28;20720;-71
2022/04/29 04:20:07;;;;;;;11.57;7.67;;;11.30;99.90;;;;;;5010911;28;20202;-73
2022/04/29 04:22:36;;;;;;;12.13;7.53;;;11.40;99.90;;;;;;5010305;28;20220;-72
2022/04/29 04:25:08;;;;;;;12.27;8.13;;;11.60;99.90;;;;;;5010820;28;20697;-72
2022/04/29 04:27:34;;;;;;;12.50;7.83;;;11.70;99.90;;;;;;5010945;28;20286;-72
2022/04/29 04:30:01;;;;;;;12.97;8.03;;;11.90;99.90;;;;;;5010784;28;20233;-73
2022/04/29 04:32:27;;;;;;;16.07;8.17;;;12.10;99.90;;;;;;5009520;28;20213;-73
2022/04/29 04:34:54;;;;;;;13.83;7.10;;;12.70;99.90;;;;;;5011055;28;20303;-72
2022/04/29 04:37:24;;;;;;;11.50;7.07;;;15.30;99.90;;;;;;5011160;28;20390;-72
2022/04/29 04:39:52;;;;;;;11.45;7.05;;;17.10;99.90;;;;;;5011300;28;20211;-72
2022/04/29 04:42:18;;;;;;;10.05;6.97;;;16.90;99.90;;;;;;5010960;28;20268;-74
2022/04/29 04:44:49;;;;;;;12.98;6.93;;;17.40;99.90;;;;;;5011711;28;20169;-73
2022/04/29 04:47:14;;;;;;;9.32;7.10;;;18.50;99.90;;;;;;5011010;28;20212;-73
2022/04/29 04:49:40;;;;;;;13.38;7.50;;;18.80;99.90;;;;;;5009949;28;20710;-72
2022/04/29 04:52:06;;;;;;;8.80;7.03;;;17.70;99.90;;;;;;5010927;28;20264;-71
2022/04/29 04:54:32;;;;;;;14.02;7.18;;;17.70;99.90;;;;;;5010013;28;20643;-71
2022/04/29 04:56:58;;;;;;;20.42;8.45;;;17.60;99.90;;;;;;5011428;28;20177;-71
2022/04/29 04:59:23;;;;;;;11.30;7.20;;;16.80;99.90;;;;;;5009699;28;20291;-71
2022/04/29 05:01:49;;;;;;;12.38;7.70;;;16.30;99.90;;;;;;5008531;28;20213;-72
2022/04/29 05:04:15;;;;;;;10.65;7.32;;;17.20;99.90;;;;;;5010966;28;20211;-72
2022/04/29 05:06:40;;;;;;;10.38;7.07;;;19.10;99.90;;;;;;5011058;28;20312;-73
2022/04/29 05:09:07;;;;;;;11.93;7.72;;;20.30;99.90;;;;;;5009396;28;20192;-72
2022/04/29 05:11:33;;;;;;;11.15;6.82;;;21.20;99.90;;;;;;5011190;28;20789;-73
2022/04/29 05:13:59;;;;;;;10.80;7.00;;;21.50;99.90;;;;;;5010853;28;20308;-73
2022/04/29 05:16:25;;;;;;;11.95;6.30;;;21.10;99.90;;;;;;5010683;28;20301;-73
2022/04/29 05:18:50;;;;;;;10.70;6.85;;;20.10;99.90;;;;;;5008778;28;20215;-72
2022/04/29 05:21:16;;;;;;;10.90;6.97;;;19.10;99.90;;;;;;5010510;28;20177;-73
2022/04/29 05:23:42;;;;;;;11.75;7.07;;;18.10;99.90;;;;;;5010928;28;20194;-72
2022/04/29 05:26:08;;;;;;;9.50;7.28;;;17.50;99.90;;;;;;5010735;28;20205;-72
2022/04/29 05:28:34;;;;;;;15.38;7.35;;;16.80;99.90;;;;;;5009614;28;20689;-72
2022/04/29 05:30:59;;;;;;;12.57;7.65;;;16.50;99.90;;;;;;5010635;28;20339;-72
2022/04/29 05:33:26;;;;;;;11.25;7.32;;;16.90;99.90;;;;;;5008869;28;20264;-72
2022/04/29 05:35:51;;;;;;;15.13;7.05;;;17.70;99.90;;;;;;5010852;28;20308;-73
2022/04/29 05:38:17;;;;;;;16.38;7.13;;;17.70;99.90;;;;;;5013887;28;20240;-72
2022/04/29 05:43:28;;;;;;;18.23;8.25;;;18.00;99.90;;;;;;5014010;28;20220;-72
2022/04/29 05:45:54;;;;;;;10.38;5.60;;;18.80;99.90;;;;;;5012875;28;20708;-73
2022/04/29 05:48:19;;;;;;;14.38;5.97;;;19.20;99.90;;;;;;5013403;28;20189;-72
2022/04/29 05:50:46;;;;;;;11.32;5.25;;;19.70;99.90;;;;;;5014430;28;20219;-72
2022/04/29 05:53:11;;;;;;;9.30;5.35;;;20.30;99.90;;;;;;5013974;28;20239;-73
2022/04/29 05:55:37;;;;;;;10.02;5.22;;;20.10;99.90;;;;;;5014331;28;20290;-73
2022/04/29 05:58:02;;;;;;;13.80;4.75;;;20.70;99.90;;;;;;5013358;28;20213;-72
2022/04/29 06:00:28;;;;;;;10.43;4.22;;;21.40;98.40;;;;;;5012606;28;20205;-72
2022/04/29 06:02:53;;;;;;;9.98;4.60;;;21.70;96.20;;;;;;5014439;28;20738;-72
2022/04/29 06:05:19;;;;;;;9.35;4.53;;;22.10;95.30;;;;;;5014241;28;20213;-73
2022/04/29 06:07:44;;;;;;;8.45;4.75;;;22.00;94.00;;;;;;5013461;28;20236;-72
2022/04/29 06:10:10;;;;;;;6.90;4.57;;;23.00;92.70;;;;;;5013593;28;20209;-74
2022/04/29 06:12:42;;;;;;;10.07;5.00;;;23.10;90.80;;;;;;5012945;28;20239;-72
2022/04/29 06:15:14;;;;;;;12.23;4.60;;;23.30;91.10;;;;;;5014015;28;20211;-73
2022/04/29 06:17:39;;;;;;;10.02;4.03;;;23.70;87.30;;;;;;5013983;28;20188;-71
2022/04/29 06:20:06;;;;;;;9.38;4.03;;;23.50;86.00;;;;;;5013471;28;20208;-72
2022/04/29 06:22:31;;;;;;;9.27;4.50;;;24.10;84.50;;;;;;5013194;28;20591;-72
2022/04/29 06:24:57;;;;;;;7.55;4.03;;;24.00;82.70;;;;;;5013713;28;20212;-73
2022/04/29 06:27:23;;;;;;;6.55;3.33;;;24.20;80.40;;;;;;5012203;28;20176;-72
2022/04/29 06:29:48;;;;;;;6.35;3.40;;;23.70;77.40;;;;;;5012354;28;20200;-72
2022/04/29 06:32:14;;;;;;;10.15;5.38;;;23.80;78.90;;;;;;5009701;28;20209;-73
2022/04/29 06:34:39;;;;;;;14.95;4.10;;;23.20;77.80;;;;;;5014607;28;20235;-74
2022/04/29 06:37:06;;;;;;;9.07;3.67;;;23.80;77.50;;;;;;5012321;28;20739;-74
2022/04/29 06:39:32;;;;;;;8.15;3.50;;;23.80;75.60;;;;;;5007095;28;20221;-73
2022/04/29 06:41:57;;;;;;;8.90;3.58;;;23.40;76.70;;;;;;5013583;28;20388;-74
2022/04/29 06:44:23;;;;;;;11.27;3.80;;;23.10;76.30;;;;;;5010204;28;20217;-73
2022/04/29 06:46:50;;;;;;;28.23;5.60;;;22.30;76.70;;;;;;5011197;28;20678;-73
2022/04/29 06:49:16;;;;;;;10.55;3.78;;;21.60;79.80;;;;;;5004445;28;20578;-73
2022/04/29 06:51:42;;;;;;;13.90;3.85;;;22.10;79.70;;;;;;5009869;28;20212;-73
2022/04/29 06:54:08;;;;;;;8.40;3.58;;;22.30;79.20;;;;;;5012649;28;20204;-72
2022/04/29 06:56:33;;;;;;;9.93;3.47;;;22.90;76.80;;;;;;5013000;28;20168;-74
2022/04/29 06:58:59;;;;;;;15.18;4.45;;;23.80;76.00;;;;;;5012638;28;20678;-75
2022/04/29 07:01:25;;;;;;;5.22;2.85;;;24.50;73.40;;;;;;5012565;28;20216;-75
2022/04/29 07:03:50;;;;;;;6.53;2.80;;;24.60;71.30;;;;;;5012886;28;20216;-71
2022/04/29 07:06:16;;;;;;;7.05;2.33;;;23.40;71.40;;;;;;5012046;28;20177;-74
2022/04/29 07:08:41;;;;;;;5.25;2.55;;;23.40;71.20;;;;;;5005030;28;20180;-72
2022/04/29 07:11:07;;;;;;;7.63;2.10;;;22.70;70.60;;;;;;4993160;28;20208;-79
2022/04/29 07:13:32;;;;;;;11.20;5.75;;;22.20;71.40;;;;;;5005665;28;20675;-77
2022/04/29 07:15:58;;;;;;;6.25;2.58;;;23.00;70.70;;;;;;5010923;28;20208;-78
2022/04/29 07:18:24;;;;;;;5.13;2.35;;;23.10;70.10;;;;;;5007036;28;20197;-79
2022/04/29 07:20:50;;;;;;;4.78;2.03;;;23.20;69.30;;;;;;5008288;28;20192;-76
2022/04/29 07:23:15;;;;;;;7.75;2.95;;;23.10;69.80;;;;;;5011826;28;20209;-73
2022/04/29 07:25:41;;;;;;;7.20;2.50;;;24.60;71.80;;;;;;5011902;28;20229;-75
2022/04/29 07:28:07;;;;;;;7.85;2.50;;;26.20;68.20;;;;;;5011544;28;20727;-76
2022/04/29 07:30:33;;;;;;;7.00;2.80;;;27.70;62.60;;;;;;5011981;28;20217;-77
2022/04/29 07:32:58;;;;;;;11.30;3.72;;;28.90;60.40;;;;;;5011705;28;20248;-74
2022/04/29 07:43:37;;;;;;;6.80;3.10;;;26.90;59.10;;;;;;5011778;28;20216;-75
2022/04/29 07:46:03;;;;;;;10.98;3.90;;;26.20;59.80;;;;;;5008965;28;20205;-75
2022/04/29 07:48:29;;;;;;;8.45;2.95;;;24.50;61.10;;;;;;5010906;28;20212;-74
2022/04/29 07:50:54;;;;;;;8.23;3.50;;;23.30;64.10;;;;;;5011927;28;20680;-75
2022/04/29 07:53:20;;;;;;;8.82;3.22;;;23.50;64.80;;;;;;5011629;28;20205;-75
2022/04/29 07:55:46;;;;;;;5.35;2.80;;;23.60;64.40;;;;;;5009744;28;20292;-73
2022/04/29 07:58:11;;;;;;;8.57;3.15;;;23.60;65.10;;;;;;5005217;28;20209;-73
2022/04/29 08:00:37;;;;;;;9.07;2.90;;;23.50;64.90;;;;;;5011197;28;20209;-75
2022/04/29 08:03:04;;;;;;;10.48;2.85;;;23.70;64.30;;;;;;5005318;28;20207;-72
2022/04/29 08:05:30;;;;;;;7.30;3.53;;;23.50;65.10;;;;;;5000543;28;20213;-77
2022/04/29 08:07:59;;;;;;;7.75;2.97;;;23.10;66.00;;;;;;5004596;28;20299;-74
2022/04/29 08:10:26;;;;;;;5.68;2.67;;;23.50;66.20;;;;;;5011212;28;20685;-76
2022/04/29 08:12:51;;;;;;;6.70;2.95;;;23.30;66.40;;;;;;5009985;28;20220;-76
2022/04/29 08:15:18;;;;;;;5.75;2.85;;;23.50;66.60;;;;;;5011108;28;20284;-76
2022/04/29 08:17:43;;;;;;;7.60;2.97;;;23.70;66.00;;;;;;5006425;28;20197;-74
2022/04/29 08:20:10;;;;;;;7.75;2.85;;;23.60;66.20;;;;;;5010618;28;20262;-75
2022/04/29 08:22:36;;;;;;;11.35;3.10;;;23.70;66.10;;;;;;5010814;28;20217;-75
2022/04/29 08:25:02;;;;;;;9.32;3.13;;;24.00;65.80;;;;;;5010455;28;20213;-74
2022/04/29 08:27:28;;;;;;;9.73;3.35;;;24.80;64.50;;;;;;5003260;28;20273;-77
2022/04/29 08:29:53;;;;;;;6.40;2.92;;;25.00;63.10;;;;;;5012521;28;20173;-80
2022/04/29 08:32:19;;;;;;;5.70;3.15;;;24.50;63.80;;;;;;5012078;28;20655;-79
2022/04/29 08:34:44;;;;;;;8.50;3.38;;;24.70;63.90;;;;;;5010471;28;20221;-79
2022/04/29 08:37:10;;;;;;;9.98;3.70;;;25.50;63.40;;;;;;5011330;28;20215;-78
2022/04/29 08:39:35;;;;;;;6.97;3.63;;;25.30;63.00;;;;;;5003809;28;20232;-76
2022/04/29 08:42:02;;;;;;;9.85;4.82;;;25.00;64.20;;;;;;5009091;28;20217;-75
2022/04/29 08:44:30;;;;;;;7.30;3.67;;;24.90;64.80;;;;;;5002760;28;20216;-76
2022/04/29 08:46:56;;;;;;;11.40;4.30;;;24.60;65.30;;;;;;5008554;28;20227;-76
2022/04/29 08:49:24;;;;;;;8.45;4.55;;;24.20;65.10;;;;;;5008815;28;20209;-74
2022/04/29 08:51:50;;;;;;;8.38;5.00;;;23.60;66.60;;;;;;5010353;28;20601;-77
2022/04/29 08:58:36;;;;;;;9.05;3.80;;;23.30;67.60;;;;;;5009923;28;20725;-78
2022/04/29 09:00:00;;;;;;;10.05;5.20;;;23.00;69.00;;;;;;5022816;28;20218;-76
2022/04/29 09:02:27;;;;;;;9.95;4.55;;;22.90;69.70;;;;;;5031043;28;20282;-78
2022/04/29 09:04:53;;;;;;;9.27;5.50;;;22.90;69.80;;;;;;5021010;28;20716;-78
2022/04/29 09:07:19;;;;;;;6.15;4.40;;;23.00;70.30;;;;;;5018663;28;20231;-77
2022/04/29 09:10:02;;;;;;;8.38;4.22;;;22.90;70.10;;;;;;5025000;28;20292;-73
2022/04/29 09:12:27;;;;;;;9.48;4.07;;;22.10;70.90;;;;;;5014600;28;20224;-72
2022/04/29 09:15:10;;;;;;;11.85;6.22;;;21.90;72.00;;;;;;5014766;28;20203;-77
2022/04/29 09:17:38;;;;;;;8.25;4.20;;;22.10;71.80;;;;;;5014447;28;20247;-77
2022/04/29 09:20:12;;;;;;;9.75;4.53;;;22.10;72.20;;;;;;5010521;28;20297;-77
2022/04/29 09:22:39;;;;;;;9.30;4.50;;;22.70;71.10;;;;;;5013252;28;20219;-75
2022/04/29 09:25:05;;;;;;;9.50;4.28;;;23.50;70.50;;;;;;5012848;28;20232;-74
2022/04/29 09:27:30;;;;;;;8.65;4.47;;;23.70;69.30;;;;;;5014303;28;20299;-77
2022/04/29 09:29:59;;;;;;;11.65;4.68;;;23.70;69.00;;;;;;5014197;28;20260;-76
2022/04/29 09:32:25;;;;;;;8.73;4.00;;;24.30;68.70;;;;;;5012154;28;20287;-78
2022/04/29 09:34:58;;;;;;;8.93;4.38;;;23.10;68.90;;;;;;5013444;28;20291;-74
2022/04/29 09:37:28;;;;;;;16.90;8.68;;;22.40;69.90;;;;;;5013433;28;20228;-77
2022/04/29 09:40:00;;;;;;;8.48;4.53;;;21.80;72.20;;;;;;5008642;28;20303;-80
2022/04/29 09:42:39;;;;;;;11.15;6.50;;;21.40;72.50;;;;;;5010258;28;20287;-75
2022/04/29 09:45:21;;;;;;;10.68;4.43;;;21.60;73.70;;;;;;5013265;28;20216;-75
2022/04/29 09:47:53;;;;;;;13.40;4.75;;;22.30;73.20;;;;;;5008456;28;20208;-73
2022/04/29 09:50:19;;;;;;;7.10;3.83;;;22.50;72.00;;;;;;5006037;28;20256;-73
2022/04/29 09:52:45;;;;;;;9.27;4.07;;;22.70;71.80;;;;;;5001568;28;20209;-72
2022/04/29 09:55:18;;;;;;;6.32;3.38;;;23.10;71.10;;;;;;5018361;28;20224;-73
2022/04/29 09:57:59;;;;;;;7.38;4.28;;;22.80;70.50;;;;;;5006770;28;20294;-72
2022/04/29 10:00:24;;;;;;;9.15;4.45;;;23.30;70.50;;;;;;5003171;28;20655;-73
2022/04/29 10:02:50;;;;;;;6.43;3.47;;;23.50;70.00;;;;;;5006373;28;20218;-73
2022/04/29 10:05:16;;;;;;;8.25;4.40;;;23.80;69.40;;;;;;5003569;28;20205;-72
2022/04/29 10:07:43;;;;;;;10.82;4.07;;;23.20;68.70;;;;;;5017388;28;20209;-72
2022/04/29 10:10:09;;;;;;;9.48;4.95;;;23.00;69.60;;;;;;5003162;28;20690;-73
2022/04/29 10:12:35;;;;;;;5.82;3.92;;;22.50;70.50;;;;;;5007840;28;20217;-72
2022/04/29 10:15:05;;;;;;;7.15;4.03;;;22.20;71.10;;;;;;5004778;28;20279;-73
2022/04/29 10:23:06;;;;;;;8.90;4.20;;;21.00;73.40;;;;;;5003703;28;20216;-72
2022/04/29 10:25:34;;;;;;;10.43;4.35;;;21.50;75.10;;;;;;5006274;28;20574;-72
2022/04/29 10:28:00;;;;;;;7.60;4.25;;;21.80;74.30;;;;;;5006384;28;20709;-72
2022/04/29 10:30:33;;;;;;;6.80;4.32;;;21.70;74.80;;;;;;5003082;28;20188;-73
2022/04/29 10:33:00;;;;;;;7.68;4.53;;;21.90;75.50;;;;;;5011916;28;20649;-72
2022/04/29 10:35:47;;;;;;;7.72;4.72;;;22.00;75.20;;;;;;5020204;28;20216;-73
2022/04/29 10:38:13;;;;;;;6.88;4.47;;;22.30;75.50;;;;;;5005321;28;20586;-72
2022/04/29 10:40:39;;;;;;;12.35;5.40;;;22.40;73.80;;;;;;5021865;28;20214;-74
2022/04/29 10:43:09;;;;;;;13.20;5.22;;;22.70;78.80;;;;;;5011498;28;20431;-73
2022/04/29 10:45:57;;;;;;;11.07;5.75;;;22.90;77.60;;;;;;5008799;28;20768;-75
2022/04/29 10:48:39;;;;;;;7.95;4.65;;;23.30;78.20;;;;;;5004229;28;20239;-72
2022/04/29 10:51:14;;;;;;;14.90;5.22;;;23.60;78.70;;;;;;5010548;28;20545;-72
2022/04/29 10:53:42;;;;;;;6.35;4.50;;;23.60;81.90;;;;;;5008125;28;20740;-75
2022/04/29 10:56:26;;;;;;;8.73;4.65;;;23.00;73.10;;;;;;5005887;28;20212;-77
2022/04/29 10:58:53;;;;;;;8.80;4.55;;;23.10;79.50;;;;;;5019466;28;20200;-75
2022/04/29 11:01:25;;;;;;;8.27;4.53;;;23.20;75.60;;;;;;5041507;28;20226;-75
2022/04/29 11:03:50;;;;;;;8.02;4.93;;;22.90;75.70;;;;;;5035353;28;20217;-76
2022/04/29 11:06:16;;;;;;;6.75;4.30;;;23.00;75.90;;;;;;5014393;28;20673;-73
2022/04/29 11:08:44;;;;;;;8.95;4.30;;;23.00;78.60;;;;;;5032146;28;20165;-78
2022/04/29 11:11:10;;;;;;;7.55;5.10;;;23.10;77.60;;;;;;5004895;28;20207;-78
2022/04/29 11:13:42;;;;;;;18.60;5.55;;;22.70;73.10;;;;;;5012520;28;20650;-74
2022/04/29 11:16:16;;;;;;;10.32;5.85;;;21.80;73.60;;;;;;5012618;28;20641;-73
2022/04/29 11:18:44;;;;;;;7.38;4.85;;;21.60;74.40;;;;;;5010070;28;20208;-73
2022/04/29 11:26:47;;;;;;;8.50;4.70;;;20.70;76.50;;;;;;5028060;28;20712;-74
2022/04/29 11:29:14;;;;;;;8.82;5.18;;;20.40;78.00;;;;;;5026318;28;20208;-74
2022/04/29 11:31:41;;;;;;;11.55;5.03;;;20.50;77.60;;;;;;5036662;28;20208;-74
2022/04/29 11:34:11;;;;;;;10.55;5.43;;;20.70;77.90;;;;;;5053010;28;20807;-74
2022/04/29 11:36:38;;;;;;;12.82;5.80;;;21.20;78.10;;;;;;5060008;28;20220;-77
2022/04/29 11:39:17;;;;;;;9.75;5.60;;;21.60;77.00;;;;;;5012952;28;20616;-77
2022/04/29 11:41:59;;;;;;;11.43;5.43;;;21.80;75.60;;;;;;5010811;28;20231;-77
2022/04/29 11:44:39;;;;;;;9.20;4.20;;;21.60;74.70;;;;;;5011704;28;20216;-76
2022/04/29 11:47:05;;;;;;;9.80;5.03;;;21.80;75.30;;;;;;5010743;28;20284;-80
2022/04/29 11:49:34;;;;;;;9.07;5.05;;;21.70;74.80;;;;;;5011580;28;20201;-74
2022/04/29 11:52:31;;;;;;;8.15;5.07;;;21.60;74.40;;;;;;5010727;28;20282;-77
2022/04/29 11:54:59;;;;;;;9.70;4.55;;;21.60;75.90;;;;;;5005122;28;20228;-76
2022/04/29 11:57:27;;;;;;;7.88;4.57;;;21.70;75.20;;;;;;5010800;28;20185;-76
2022/04/29 11:59:53;;;;;;;9.02;4.68;;;21.80;74.10;;;;;;5012923;28;20227;-79
2022/04/29 12:02:21;;;;;;;9.65;4.28;;;21.80;74.00;;;;;;5013500;28;20205;-78
2022/04/29 12:05:06;;;;;;;14.75;8.18;;;21.80;74.40;;;;;;5004973;28;20602;-78
2022/04/29 12:07:45;;;;;;;10.20;4.75;;;21.70;75.20;;;;;;5024087;28;20200;-79
2022/04/29 12:10:18;;;;;;;7.97;4.65;;;21.60;74.70;;;;;;5022021;28;20263;-79
2022/04/29 12:12:47;;;;;;;7.38;4.85;;;21.90;74.20;;;;;;5012653;28;20899;-79
2022/04/29 12:15:16;;;;;;;8.30;4.55;;;21.90;73.70;;;;;;5011002;28;20204;-79
2022/04/29 12:17:42;;;;;;;9.30;4.50;;;21.50;73.20;;;;;;5012439;28;20177;-79
2022/04/29 12:20:14;;;;;;;9.30;4.72;;;21.50;73.70;;;;;;5011533;28;20211;-79
2022/04/29 12:22:40;;;;;;;8.00;4.78;;;21.80;74.10;;;;;;5011957;28;20379;-79
2022/04/29 12:25:42;;;;;;;8.02;4.40;;;21.70;73.50;;;;;;5011909;28;20280;-79
2022/04/29 12:28:08;;;;;;;10.00;5.85;;;21.40;74.10;;;;;;5007107;28;20205;-78
2022/04/29 12:36:12;;;;;;;8.73;5.43;;;20.10;76.20;;;;;;5006808;28;20204;-74
2022/04/29 12:38:40;;;;;;;9.70;5.85;;;20.10;76.10;;;;;;5011390;28;20546;-75
2022/04/29 12:41:27;;;;;;;9.07;4.72;;;20.00;76.70;;;;;;5011373;28;20612;-75
2022/04/29 12:44:05;;;;;;;7.18;4.20;;;20.50;76.20;;;;;;5010022;28;20259;-75
2022/04/29 12:46:30;;;;;;;8.50;4.32;;;20.70;75.60;;;;;;5011115;28;20255;-74
2022/04/29 12:48:56;;;;;;;7.05;4.95;;;21.00;74.90;;;;;;5010578;28;20213;-76
2022/04/29 12:51:26;;;;;;;8.15;5.45;;;20.70;73.90;;;;;;5011142;28;20697;-74
2022/04/29 12:53:59;;;;;;;13.30;5.65;;;20.40;74.70;;;;;;5012017;28;20201;-74
2022/04/29 12:56:28;;;;;;;7.97;4.30;;;20.40;75.20;;;;;;5011380;28;20236;-76
2022/04/29 12:58:54;;;;;;;9.48;4.60;;;20.80;75.00;;;;;;5010003;28;20619;-75
2022/04/29 13:01:20;;;;;;;6.72;4.30;;;20.90;73.30;;;;;;5011170;28;20232;-75
2022/04/29 13:03:54;;;;;;;7.38;4.50;;;21.00;73.20;;;;;;5002898;28;20745;-75
2022/04/29 13:06:21;;;;;;;12.68;4.68;;;21.20;72.50;;;;;;5009878;28;20231;-75
2022/04/29 13:08:52;;;;;;;4.95;4.15;;;21.30;72.30;;;;;;5011098;28;20227;-75
2022/04/29 13:11:18;;;;;;;9.77;5.53;;;20.90;72.60;;;;;;5009776;28;20581;-75
2022/04/29 13:13:44;;;;;;;9.25;4.57;;;20.50;72.90;;;;;;5010794;28;20686;-75